Time;durP1;ratioP1;P1;durP2;ratioP2;P2;SDS_P1;SDS_P2;PMS_P1;PMS_P2;Temp;Humidity;BMP_temperature;BMP_pressure;BME280_temperature;BME280_humidity;BME280_pressure;Samples;Min_cycle;Max_cycle;Signal;HPM_P1;HPM_P2
2022/11/16 00:02:07;;;;;;;186.40;49.25;;;;;;;;;;5051390;28;20025;-44
2022/11/16 00:04:32;;;;;;;193.02;48.72;;;;;;;;;;5051652;28;20050;-43
2022/11/16 00:06:58;;;;;;;191.73;50.92;;;;;;;;;;5052024;28;20023;-43
2022/11/16 00:09:25;;;;;;;190.15;49.53;;;;;;;;;;5052202;28;20020;-42
2022/11/16 00:11:55;;;;;;;206.60;50.95;;;;;;;;;;5052250;28;20105;-44
2022/11/16 00:14:21;;;;;;;191.80;52.13;;;;;;;;;;5051261;28;20062;-42
2022/11/16 00:16:46;;;;;;;182.15;50.15;;;;;;;;;;5051379;28;20052;-43
2022/11/16 00:19:12;;;;;;;193.20;51.13;;;;;;;;;;5052177;28;20461;-40
2022/11/16 00:21:37;;;;;;;213.95;53.17;;;;;;;;;;5052132;28;20020;-42
2022/11/16 00:24:02;;;;;;;210.57;54.80;;;;;;;;;;5051465;28;20044;-42
2022/11/16 00:26:28;;;;;;;201.15;52.80;;;;;;;;;;5052051;28;20028;-43
2022/11/16 00:28:53;;;;;;;201.95;50.35;;;;;;;;;;5051996;28;20021;-44
2022/11/16 00:31:18;;;;;;;195.85;48.95;;;;;;;;;;5051754;28;20033;-43
2022/11/16 00:33:44;;;;;;;191.73;50.42;;;;;;;;;;5051243;28;20127;-43
2022/11/16 00:36:10;;;;;;;227.95;55.58;;;;;;;;;;5053080;28;20384;-44
2022/11/16 00:38:35;;;;;;;191.35;50.92;;;;;;;;;;5051934;28;20020;-43
2022/11/16 00:41:00;;;;;;;197.65;51.22;;;;;;;;;;5052028;28;20108;-43
2022/11/16 00:43:26;;;;;;;191.43;51.50;;;;;;;;;;5051294;28;20021;-43
2022/11/16 00:45:51;;;;;;;195.55;50.70;;;;;;;;;;5051198;28;20099;-42
2022/11/16 00:48:17;;;;;;;199.00;53.20;;;;;;;;;;5051964;28;20480;-43
2022/11/16 00:50:43;;;;;;;172.52;47.53;;;;;;;;;;5052008;28;20105;-43
2022/11/16 00:53:11;;;;;;;152.15;47.33;;;;;;;;;;5051633;28;20108;-43
2022/11/16 00:55:36;;;;;;;162.55;48.58;;;;;;;;;;5051758;28;20112;-44
2022/11/16 00:58:01;;;;;;;161.10;46.63;;;;;;;;;;5055416;28;20108;-40
2022/11/16 01:00:26;;;;;;;161.65;48.60;;;;;;;;;;5053787;28;20036;-42
2022/11/16 01:02:53;;;;;;;169.43;50.40;;;;;;;;;;5055278;28;20096;-44
2022/11/16 01:05:18;;;;;;;159.93;46.65;;;;;;;;;;5054430;28;20460;-43
2022/11/16 01:07:43;;;;;;;155.02;49.00;;;;;;;;;;5055310;28;20066;-42
2022/11/16 01:10:10;;;;;;;154.20;46.10;;;;;;;;;;5066264;28;20345;-42
2022/11/16 01:12:36;;;;;;;159.25;47.78;;;;;;;;;;5073310;28;20246;-43
2022/11/16 01:15:02;;;;;;;151.68;48.45;;;;;;;;;;5073014;28;20043;-43
2022/11/16 01:17:27;;;;;;;163.63;48.60;;;;;;;;;;5074672;28;20094;-41
2022/11/16 01:19:52;;;;;;;161.93;49.25;;;;;;;;;;5073799;28;20043;-41
2022/11/16 01:22:17;;;;;;;158.73;48.97;;;;;;;;;;5073321;28;20017;-43
2022/11/16 01:24:44;;;;;;;153.25;47.47;;;;;;;;;;5072974;28;20043;-42
2022/11/16 01:27:09;;;;;;;166.13;48.53;;;;;;;;;;5073634;28;20028;-39
2022/11/16 01:29:35;;;;;;;159.17;46.37;;;;;;;;;;5073281;28;20074;-43
2022/11/16 01:32:00;;;;;;;173.00;50.60;;;;;;;;;;5067652;28;20304;-41
2022/11/16 01:34:25;;;;;;;153.20;49.08;;;;;;;;;;5054160;28;20246;-44
2022/11/16 01:36:50;;;;;;;160.13;49.83;;;;;;;;;;5058878;28;20024;-42
2022/11/16 01:39:16;;;;;;;171.93;51.33;;;;;;;;;;5054855;28;20017;-43
2022/11/16 01:41:42;;;;;;;167.57;52.30;;;;;;;;;;5054252;28;20169;-43
2022/11/16 01:44:13;;;;;;;161.07;48.83;;;;;;;;;;5053543;28;20058;-42
2022/11/16 01:46:39;;;;;;;157.68;48.65;;;;;;;;;;5055029;28;20057;-43
2022/11/16 01:49:07;;;;;;;159.55;49.95;;;;;;;;;;5054643;28;20093;-42
2022/11/16 01:51:32;;;;;;;155.20;48.10;;;;;;;;;;5068090;28;20009;-43
2022/11/16 01:53:58;;;;;;;154.73;48.45;;;;;;;;;;5072346;28;20027;-43
2022/11/16 01:56:23;;;;;;;147.80;47.00;;;;;;;;;;5073331;28;20021;-42
2022/11/16 01:58:49;;;;;;;161.10;49.00;;;;;;;;;;5073086;28;20032;-41
2022/11/16 02:01:14;;;;;;;171.82;50.67;;;;;;;;;;5073223;28;20024;-43
2022/11/16 02:03:39;;;;;;;155.32;48.10;;;;;;;;;;5072267;28;20032;-43
2022/11/16 02:06:07;;;;;;;179.68;49.10;;;;;;;;;;5073610;28;20071;-43
2022/11/16 02:11:58;;;;;;;140.13;45.38;;;;;;;;;;5073585;28;20475;-43
2022/11/16 02:14:52;;;;;;;153.50;44.33;;;;;;;;;;5050099;28;20056;-43
2022/11/16 02:17:23;;;;;;;157.02;46.50;;;;;;;;;;5034398;28;20516;-43
2022/11/16 02:20:08;;;;;;;193.32;48.80;;;;;;;;;;5072641;28;20021;-43
2022/11/16 02:22:39;;;;;;;166.80;47.45;;;;;;;;;;5072331;28;20116;-42
2022/11/16 02:25:33;;;;;;;231.40;47.85;;;;;;;;;;5071896;28;20075;-43
2022/11/16 02:27:59;;;;;;;183.95;48.35;;;;;;;;;;5066782;28;20119;-42
2022/11/16 02:30:24;;;;;;;146.27;45.07;;;;;;;;;;5072587;28;20198;-41
2022/11/16 02:32:57;;;;;;;191.15;49.63;;;;;;;;;;5072363;28;20237;-42
2022/11/16 02:35:31;;;;;;;247.35;52.22;;;;;;;;;;5052762;28;20073;-40
2022/11/16 02:37:58;;;;;;;209.30;50.63;;;;;;;;;;5054733;28;20369;-43
2022/11/16 02:40:25;;;;;;;311.77;53.90;;;;;;;;;;5053237;28;20070;-45
2022/11/16 02:42:52;;;;;;;196.75;48.67;;;;;;;;;;5051665;28;20465;-43
2022/11/16 02:45:22;;;;;;;197.52;49.50;;;;;;;;;;5052629;28;20033;-42
2022/11/16 02:47:49;;;;;;;212.95;49.90;;;;;;;;;;5052877;28;20389;-45
2022/11/16 02:50:20;;;;;;;210.63;51.28;;;;;;;;;;5053250;28;20384;-43
2022/11/16 02:52:45;;;;;;;207.13;50.15;;;;;;;;;;5052898;28;20021;-44
2022/11/16 02:55:11;;;;;;;184.15;49.35;;;;;;;;;;5052452;28;20040;-43
2022/11/16 02:57:52;;;;;;;186.32;50.22;;;;;;;;;;5053389;28;20412;-43
2022/11/16 03:00:21;;;;;;;226.32;48.95;;;;;;;;;;5053281;28;20032;-42
2022/11/16 03:02:55;;;;;;;171.57;49.92;;;;;;;;;;5052301;28;20059;-44
2022/11/16 03:05:32;;;;;;;209.27;52.03;;;;;;;;;;5051374;28;20029;-41
2022/11/16 03:08:00;;;;;;;212.70;54.47;;;;;;;;;;5067156;28;20080;-43
2022/11/16 03:13:10;;;;;;;187.88;52.85;;;;;;;;;;5070906;28;20032;-42
2022/11/16 03:15:37;;;;;;;198.88;52.55;;;;;;;;;;5071996;28;20096;-42
2022/11/16 03:18:03;;;;;;;188.98;51.58;;;;;;;;;;5071186;28;20024;-42
2022/11/16 03:20:30;;;;;;;262.23;55.25;;;;;;;;;;5070858;28;20099;-44
2022/11/16 03:22:57;;;;;;;212.48;52.92;;;;;;;;;;5070666;28;20464;-43
2022/11/16 03:25:23;;;;;;;200.00;53.88;;;;;;;;;;5069056;28;20032;-42
2022/11/16 03:27:53;;;;;;;192.27;49.85;;;;;;;;;;5070432;28;20475;-43
2022/11/16 03:30:20;;;;;;;184.48;48.22;;;;;;;;;;5071072;28;20472;-43
2022/11/16 03:32:53;;;;;;;192.57;50.67;;;;;;;;;;5071913;28;20468;-44
2022/11/16 03:35:18;;;;;;;285.02;54.72;;;;;;;;;;5071743;28;20035;-44
2022/11/16 03:37:44;;;;;;;221.30;54.80;;;;;;;;;;5057505;28;20028;-42
2022/11/16 03:40:10;;;;;;;201.98;51.60;;;;;;;;;;5052747;28;20250;-42
2022/11/16 03:42:36;;;;;;;186.80;52.13;;;;;;;;;;5052162;28;20021;-46
2022/11/16 03:45:01;;;;;;;195.23;50.70;;;;;;;;;;5051667;28;20029;-42
2022/11/16 03:47:27;;;;;;;198.80;52.47;;;;;;;;;;5052715;28;20057;-42
2022/11/16 03:49:52;;;;;;;185.85;54.10;;;;;;;;;;5052728;28;20025;-42
2022/11/16 03:52:17;;;;;;;211.57;55.20;;;;;;;;;;5052291;28;20094;-42
2022/11/16 03:54:43;;;;;;;188.68;52.60;;;;;;;;;;5050939;28;20303;-43
2022/11/16 03:57:14;;;;;;;198.88;54.83;;;;;;;;;;5052594;28;20021;-43
2022/11/16 03:59:39;;;;;;;191.55;53.42;;;;;;;;;;5052030;28;20601;-41
2022/11/16 04:02:04;;;;;;;203.27;54.95;;;;;;;;;;5052407;28;20096;-44
2022/11/16 04:28:11;;;;;;;193.95;54.38;;;;;;;;;;5052102;28;20051;-43
2022/11/16 04:29:08;;;;;;;198.00;55.90;;;;;;;;;;5051963;28;20036;-45
2022/11/16 04:39:45;;;;;;;183.50;52.83;;;;;;;;;;5055799;28;20079;-43
2022/11/16 04:42:18;;;;;;;182.30;53.30;;;;;;;;;;5055322;28;20025;-41
2022/11/16 04:47:27;;;;;;;189.73;53.08;;;;;;;;;;5055775;28;20147;-43
2022/11/16 04:49:53;;;;;;;188.25;55.65;;;;;;;;;;5055593;28;20388;-43
2022/11/16 04:52:18;;;;;;;201.10;55.95;;;;;;;;;;5055459;28;20024;-44
2022/11/16 04:54:43;;;;;;;198.63;56.15;;;;;;;;;;5054930;28;20090;-44
2022/11/16 04:57:08;;;;;;;197.32;57.13;;;;;;;;;;5055856;28;20100;-45
2022/11/16 04:59:34;;;;;;;184.77;53.37;;;;;;;;;;5055451;28;20147;-43
2022/11/16 05:02:08;;;;;;;200.97;59.07;;;;;;;;;;5054976;28;20786;-45
2022/11/16 05:04:40;;;;;;;198.65;58.33;;;;;;;;;;5054656;28;20285;-43
2022/11/16 05:07:12;;;;;;;181.55;52.00;;;;;;;;;;5055171;28;20162;-41
2022/11/16 05:09:40;;;;;;;188.45;57.53;;;;;;;;;;5055163;28;20090;-43
2022/11/16 05:12:05;;;;;;;180.65;53.15;;;;;;;;;;5054916;28;20017;-44
2022/11/16 05:14:31;;;;;;;180.10;55.92;;;;;;;;;;5054348;28;20027;-43
2022/11/16 05:16:56;;;;;;;189.23;54.70;;;;;;;;;;5055425;28;20017;-42
2022/11/16 05:22:05;;;;;;;179.73;53.92;;;;;;;;;;5054283;28;20257;-43
2022/11/16 05:24:33;;;;;;;186.17;53.67;;;;;;;;;;5072974;28;20456;-43
2022/11/16 05:27:02;;;;;;;184.32;52.47;;;;;;;;;;5074059;28;20242;-40
2022/11/16 05:29:27;;;;;;;184.63;50.47;;;;;;;;;;5073646;28;20164;-43
2022/11/16 05:31:53;;;;;;;179.43;52.53;;;;;;;;;;5073620;28;20146;-42
2022/11/16 05:34:18;;;;;;;191.88;55.13;;;;;;;;;;5072790;28;20020;-43
2022/11/16 05:36:43;;;;;;;185.63;54.97;;;;;;;;;;5068169;28;20020;-40
2022/11/16 05:39:09;;;;;;;186.70;54.58;;;;;;;;;;5054817;28;20247;-43
2022/11/16 05:41:35;;;;;;;191.70;55.30;;;;;;;;;;5054165;28;20094;-41
2022/11/16 05:44:00;;;;;;;185.13;55.20;;;;;;;;;;5053178;28;20417;-44
2022/11/16 05:46:25;;;;;;;185.38;55.15;;;;;;;;;;5054376;28;20667;-43
2022/11/16 05:48:50;;;;;;;193.93;58.38;;;;;;;;;;5054742;28;20048;-44
2022/11/16 05:51:16;;;;;;;186.32;56.53;;;;;;;;;;5054949;28;20028;-43
2022/11/16 05:53:43;;;;;;;193.30;58.70;;;;;;;;;;5054321;28;20060;-43
2022/11/16 05:56:08;;;;;;;174.63;55.53;;;;;;;;;;5053957;28;20487;-43
2022/11/16 05:58:33;;;;;;;194.98;58.55;;;;;;;;;;5054371;28;20048;-42
2022/11/16 06:00:59;;;;;;;189.32;59.13;;;;;;;;;;5054609;28;20084;-43
2022/11/16 06:03:26;;;;;;;184.40;56.60;;;;;;;;;;5053851;28;20415;-44
2022/11/16 06:05:53;;;;;;;190.23;56.88;;;;;;;;;;5053798;28;20154;-43
2022/11/16 06:08:18;;;;;;;161.15;53.45;;;;;;;;;;5054110;28;20025;-43
2022/11/16 06:10:43;;;;;;;162.82;52.33;;;;;;;;;;5053989;28;20016;-42
2022/11/16 06:13:09;;;;;;;162.98;54.72;;;;;;;;;;5053546;28;20021;-42
2022/11/16 06:15:37;;;;;;;167.15;55.17;;;;;;;;;;5053888;28;20122;-43
2022/11/16 06:18:02;;;;;;;161.63;53.40;;;;;;;;;;5053841;28;20025;-45
2022/11/16 06:20:27;;;;;;;171.45;52.95;;;;;;;;;;5053947;28;20380;-43
2022/11/16 06:22:53;;;;;;;160.98;50.22;;;;;;;;;;5053335;28;20027;-42
2022/11/16 06:25:18;;;;;;;151.57;53.27;;;;;;;;;;5052918;28;20480;-44
2022/11/16 06:27:43;;;;;;;133.77;48.57;;;;;;;;;;5053912;28;20250;-44
2022/11/16 06:30:08;;;;;;;135.90;49.20;;;;;;;;;;5053903;28;20600;-43
2022/11/16 06:32:34;;;;;;;144.45;47.60;;;;;;;;;;5053344;28;20261;-44
2022/11/16 06:34:59;;;;;;;125.63;46.08;;;;;;;;;;5052927;28;20047;-42
2022/11/16 06:37:25;;;;;;;117.53;44.65;;;;;;;;;;5061213;28;20070;-39
2022/11/16 06:39:50;;;;;;;139.13;49.70;;;;;;;;;;5052720;28;20017;-46
2022/11/16 06:42:15;;;;;;;129.07;45.90;;;;;;;;;;5075227;28;20265;-44
2022/11/16 06:44:40;;;;;;;133.60;47.07;;;;;;;;;;5081201;28;20285;-42
2022/11/16 06:47:05;;;;;;;129.07;45.77;;;;;;;;;;5078975;28;20286;-43
2022/11/16 06:49:31;;;;;;;121.83;45.17;;;;;;;;;;5059951;28;20261;-44
2022/11/16 06:51:56;;;;;;;116.97;43.77;;;;;;;;;;5054599;28;20242;-43
2022/11/16 06:54:21;;;;;;;117.13;44.53;;;;;;;;;;5056655;28;20246;-43
2022/11/16 06:56:47;;;;;;;116.97;46.15;;;;;;;;;;5052754;28;20028;-44
2022/11/16 06:59:12;;;;;;;120.80;44.72;;;;;;;;;;5053135;28;20017;-44
2022/11/16 07:01:37;;;;;;;121.47;44.72;;;;;;;;;;5052604;28;20474;-42
2022/11/16 07:04:02;;;;;;;114.88;45.08;;;;;;;;;;5051237;28;20093;-44
2022/11/16 07:06:28;;;;;;;113.35;43.45;;;;;;;;;;5059533;28;20034;-44
2022/11/16 07:08:53;;;;;;;111.43;44.28;;;;;;;;;;5043319;28;20576;-47
2022/11/16 07:11:19;;;;;;;114.72;44.20;;;;;;;;;;5053183;28;20020;-42
2022/11/16 07:13:44;;;;;;;108.53;44.20;;;;;;;;;;5052688;28;20509;-45
2022/11/16 07:16:10;;;;;;;120.68;45.30;;;;;;;;;;5052473;28;20031;-42
2022/11/16 07:18:36;;;;;;;105.80;41.55;;;;;;;;;;5058938;28;20075;-44
2022/11/16 07:21:19;;;;;;;116.85;45.15;;;;;;;;;;5061665;28;20055;-42
2022/11/16 07:23:45;;;;;;;125.20;46.10;;;;;;;;;;5068495;28;20017;-44
2022/11/16 07:26:10;;;;;;;115.85;44.00;;;;;;;;;;5059585;28;20035;-44
2022/11/16 07:28:36;;;;;;;117.43;42.45;;;;;;;;;;5059924;28;20095;-43
2022/11/16 07:31:09;;;;;;;112.70;43.42;;;;;;;;;;5057046;28;20033;-41
2022/11/16 07:33:34;;;;;;;117.10;43.47;;;;;;;;;;5059380;28;20417;-42
2022/11/16 07:36:07;;;;;;;114.68;45.00;;;;;;;;;;5062133;28;20021;-43
2022/11/16 07:38:32;;;;;;;106.75;42.25;;;;;;;;;;5060867;28;20028;-43
2022/11/16 07:41:08;;;;;;;116.60;45.75;;;;;;;;;;5057919;28;20457;-43
2022/11/16 07:43:34;;;;;;;120.00;43.70;;;;;;;;;;5054668;28;20743;-45
2022/11/16 07:46:06;;;;;;;115.35;43.63;;;;;;;;;;5053556;28;20141;-43
2022/11/16 07:48:33;;;;;;;111.93;43.15;;;;;;;;;;5054832;28;20033;-44
2022/11/16 07:51:02;;;;;;;123.45;44.80;;;;;;;;;;5057659;28;20361;-43
2022/11/16 07:53:28;;;;;;;125.60;45.17;;;;;;;;;;5056843;28;20074;-46
2022/11/16 07:55:53;;;;;;;126.53;43.00;;;;;;;;;;5055915;28;20025;-45
2022/11/16 07:58:19;;;;;;;127.20;45.90;;;;;;;;;;5057068;28;20024;-44
2022/11/16 08:00:44;;;;;;;131.73;45.55;;;;;;;;;;5058922;28;20064;-44
2022/11/16 08:03:10;;;;;;;130.90;47.88;;;;;;;;;;5050816;28;20074;-46
2022/11/16 08:05:35;;;;;;;127.15;46.15;;;;;;;;;;5059568;28;20072;-43
2022/11/16 08:08:00;;;;;;;123.45;47.65;;;;;;;;;;5058499;28;20021;-44
2022/11/16 08:10:25;;;;;;;129.25;45.45;;;;;;;;;;5063104;28;20032;-44
2022/11/16 08:12:51;;;;;;;117.47;45.55;;;;;;;;;;5061100;28;20029;-46
2022/11/16 08:15:16;;;;;;;125.38;43.83;;;;;;;;;;5060167;28;20606;-44
2022/11/16 08:17:41;;;;;;;122.03;44.85;;;;;;;;;;5067380;28;20048;-45
2022/11/16 08:20:08;;;;;;;116.32;43.63;;;;;;;;;;5064849;28;20021;-44
2022/11/16 08:22:33;;;;;;;119.57;43.53;;;;;;;;;;5061262;28;20085;-44
2022/11/16 08:24:59;;;;;;;113.95;42.47;;;;;;;;;;5063482;28;20647;-44
2022/11/16 08:27:24;;;;;;;123.18;41.25;;;;;;;;;;5060799;28;20021;-44
2022/11/16 08:29:49;;;;;;;122.05;43.70;;;;;;;;;;5064601;28;20451;-44
2022/11/16 08:32:15;;;;;;;112.22;40.10;;;;;;;;;;5059155;28;20470;-45
2022/11/16 08:34:40;;;;;;;128.27;44.67;;;;;;;;;;5059961;28;20049;-44
2022/11/16 08:37:05;;;;;;;126.00;46.17;;;;;;;;;;5059190;28;20753;-44
2022/11/16 08:39:31;;;;;;;123.78;44.00;;;;;;;;;;5061591;28;20016;-45
2022/11/16 08:41:56;;;;;;;134.15;45.47;;;;;;;;;;5063760;28;20036;-46
2022/11/16 08:44:21;;;;;;;124.10;44.40;;;;;;;;;;5060392;28;20032;-46
2022/11/16 08:46:46;;;;;;;132.50;44.28;;;;;;;;;;5061669;28;20056;-47
2022/11/16 08:49:12;;;;;;;124.22;45.25;;;;;;;;;;5061316;28;20021;-45
2022/11/16 08:51:37;;;;;;;117.78;42.60;;;;;;;;;;5060664;28;20024;-44
2022/11/16 08:54:04;;;;;;;126.00;47.88;;;;;;;;;;5053786;28;20028;-44
2022/11/16 08:56:30;;;;;;;124.22;44.95;;;;;;;;;;5056526;28;20048;-44
2022/11/16 08:58:55;;;;;;;119.82;44.17;;;;;;;;;;5059121;28;20023;-46
2022/11/16 09:01:22;;;;;;;116.20;44.10;;;;;;;;;;5060169;28;20393;-44
2022/11/16 09:03:48;;;;;;;129.35;45.85;;;;;;;;;;5056979;28;20017;-44
2022/11/16 09:06:14;;;;;;;131.95;48.53;;;;;;;;;;5072404;28;20441;-43
2022/11/16 09:08:41;;;;;;;107.85;41.85;;;;;;;;;;5058294;28;20020;-43
2022/11/16 09:11:07;;;;;;;117.07;43.88;;;;;;;;;;5058490;28;20029;-43
2022/11/16 09:13:33;;;;;;;111.35;43.55;;;;;;;;;;5057436;28;20099;-44
2022/11/16 09:15:59;;;;;;;120.32;41.75;;;;;;;;;;5059904;28;20096;-43
2022/11/16 09:18:24;;;;;;;119.43;44.90;;;;;;;;;;5060553;28;20028;-45
2022/11/16 09:20:50;;;;;;;117.60;44.08;;;;;;;;;;5056593;28;20448;-45
2022/11/16 09:23:15;;;;;;;127.22;45.00;;;;;;;;;;5067346;28;20029;-45
2022/11/16 09:25:41;;;;;;;122.00;43.45;;;;;;;;;;5060025;28;20051;-44
2022/11/16 09:28:07;;;;;;;111.05;43.13;;;;;;;;;;5066746;28;20056;-44
2022/11/16 09:30:32;;;;;;;119.75;45.55;;;;;;;;;;5063335;28;20035;-44
2022/11/16 09:32:58;;;;;;;116.43;44.95;;;;;;;;;;5055826;28;20099;-44
2022/11/16 09:35:23;;;;;;;117.82;44.28;;;;;;;;;;5052735;28;20032;-44
2022/11/16 09:37:49;;;;;;;130.77;46.63;;;;;;;;;;5058335;28;20434;-44
2022/11/16 09:40:14;;;;;;;120.97;45.47;;;;;;;;;;5062911;28;20137;-43
2022/11/16 09:42:48;;;;;;;112.45;44.70;;;;;;;;;;5060409;28;20078;-45
2022/11/16 09:45:14;;;;;;;115.85;44.83;;;;;;;;;;5055990;28;20032;-44
2022/11/16 09:47:48;;;;;;;119.93;44.53;;;;;;;;;;5057565;28;20853;-43
2022/11/16 09:50:29;;;;;;;116.05;43.38;;;;;;;;;;5059536;28;20017;-45
2022/11/16 09:52:55;;;;;;;115.50;44.22;;;;;;;;;;5061161;28;20078;-45
2022/11/16 09:55:32;;;;;;;111.10;45.80;;;;;;;;;;5057779;28;20053;-45
2022/11/16 09:57:58;;;;;;;102.78;44.38;;;;;;;;;;5057170;28;20101;-44
2022/11/16 10:00:24;;;;;;;107.50;41.53;;;;;;;;;;5061652;28;20020;-44
2022/11/16 10:03:08;;;;;;;103.07;41.22;;;;;;;;;;5057235;28;20021;-44
2022/11/16 10:05:34;;;;;;;102.22;42.15;;;;;;;;;;5058369;28;20142;-43
2022/11/16 10:08:11;;;;;;;98.30;41.13;;;;;;;;;;5053959;28;20029;-42
2022/11/16 10:10:38;;;;;;;105.38;41.42;;;;;;;;;;5055106;28;20269;-43
2022/11/16 10:13:25;;;;;;;94.85;41.75;;;;;;;;;;5057801;28;20464;-44
2022/11/16 10:15:59;;;;;;;94.60;39.85;;;;;;;;;;5061348;28;20060;-41
2022/11/16 10:18:24;;;;;;;86.47;37.28;;;;;;;;;;5059692;28;20048;-42
2022/11/16 10:21:14;;;;;;;91.63;37.13;;;;;;;;;;5053866;28;20017;-41
2022/11/16 10:23:39;;;;;;;87.40;37.95;;;;;;;;;;5058690;28;20483;-39
2022/11/16 10:26:13;;;;;;;84.50;36.90;;;;;;;;;;5054159;28;20075;-42
2022/11/16 10:28:47;;;;;;;80.32;38.42;;;;;;;;;;5061081;28;20029;-41
2022/11/16 10:31:27;;;;;;;99.45;38.75;;;;;;;;;;5059344;28;20031;-42
2022/11/16 10:33:55;;;;;;;99.70;38.33;;;;;;;;;;5068778;28;20029;-44
2022/11/16 10:36:25;;;;;;;90.57;36.78;;;;;;;;;;5064852;28;20047;-42
2022/11/16 10:38:52;;;;;;;88.72;39.08;;;;;;;;;;5056851;28;20383;-42
2022/11/16 10:41:20;;;;;;;94.05;36.90;;;;;;;;;;5057368;28;20025;-44
2022/11/16 10:43:46;;;;;;;96.22;38.85;;;;;;;;;;5063801;28;20607;-42
2022/11/16 10:46:17;;;;;;;89.78;36.72;;;;;;;;;;5061656;28;20048;-43
2022/11/16 10:48:48;;;;;;;74.07;35.20;;;;;;;;;;5053484;28;20466;-42
2022/11/16 10:51:14;;;;;;;78.78;33.70;;;;;;;;;;5059473;28;20029;-44
2022/11/16 10:53:40;;;;;;;87.07;35.50;;;;;;;;;;5057383;28;20139;-43
2022/11/16 10:56:12;;;;;;;71.88;33.17;;;;;;;;;;5058524;28;20051;-45
2022/11/16 10:58:51;;;;;;;70.93;31.95;;;;;;;;;;5056804;28;20017;-43
2022/11/16 11:01:30;;;;;;;74.13;33.08;;;;;;;;;;5058120;28;20085;-43
2022/11/16 11:03:56;;;;;;;95.95;33.22;;;;;;;;;;5052266;28;20079;-42
2022/11/16 11:06:24;;;;;;;76.30;34.33;;;;;;;;;;5054913;28;20025;-38
2022/11/16 11:08:49;;;;;;;81.55;33.67;;;;;;;;;;5056487;28;20364;-44
2022/11/16 11:14:13;;;;;;;78.22;34.53;;;;;;;;;;5053260;28;20039;-44
2022/11/16 11:16:40;;;;;;;79.30;35.03;;;;;;;;;;5051764;28;20072;-41
2022/11/16 11:19:35;;;;;;;86.32;35.80;;;;;;;;;;5055352;28;20070;-41
2022/11/16 11:22:00;;;;;;;79.18;34.65;;;;;;;;;;5050201;28;20133;-39
2022/11/16 11:24:27;;;;;;;64.85;31.30;;;;;;;;;;5050366;28;20484;-44
2022/11/16 11:26:54;;;;;;;86.53;32.85;;;;;;;;;;5052519;28;20028;-31
2022/11/16 11:29:25;;;;;;;72.38;33.22;;;;;;;;;;5053800;28;20025;-34
2022/11/16 11:31:52;;;;;;;70.20;32.65;;;;;;;;;;5060208;28;20031;-33
2022/11/16 11:34:19;;;;;;;73.78;32.97;;;;;;;;;;5051694;28;20036;-33
2022/11/16 11:37:05;;;;;;;78.40;33.65;;;;;;;;;;5053212;28;20052;-34
2022/11/16 11:39:30;;;;;;;67.18;31.92;;;;;;;;;;5055558;28;20040;-33
2022/11/16 11:42:19;;;;;;;74.75;33.63;;;;;;;;;;5058692;28;20009;-33
2022/11/16 11:44:50;;;;;;;69.80;31.75;;;;;;;;;;5044527;28;20128;-33
2022/11/16 11:47:34;;;;;;;75.40;36.25;;;;;;;;;;5051703;28;20055;-34
2022/11/16 11:50:12;;;;;;;87.63;36.70;;;;;;;;;;5053056;28;20081;-33
2022/11/16 11:52:40;;;;;;;106.55;40.85;;;;;;;;;;5065719;28;20047;-34
2022/11/16 11:55:06;;;;;;;75.53;35.67;;;;;;;;;;5054672;28;20222;-33
2022/11/16 11:57:35;;;;;;;82.20;36.40;;;;;;;;;;5059841;28;20092;-34
2022/11/16 12:00:01;;;;;;;88.70;38.65;;;;;;;;;;5048681;28;20032;-34
2022/11/16 12:02:39;;;;;;;84.90;39.25;;;;;;;;;;5049742;28;20490;-34
2022/11/16 12:05:10;;;;;;;87.22;39.90;;;;;;;;;;5059889;28;20045;-33
2022/11/16 12:07:35;;;;;;;81.43;38.28;;;;;;;;;;5058056;28;20021;-34
2022/11/16 12:10:01;;;;;;;87.35;38.28;;;;;;;;;;5062137;28;20025;-34
2022/11/16 12:12:44;;;;;;;83.20;38.80;;;;;;;;;;5053994;28;20047;-34
2022/11/16 12:15:10;;;;;;;89.93;38.25;;;;;;;;;;5052196;28;20032;-34
2022/11/16 12:17:48;;;;;;;95.15;41.40;;;;;;;;;;5055485;28;20036;-36
2022/11/16 12:20:23;;;;;;;93.65;40.55;;;;;;;;;;5057891;28;20017;-34
2022/11/16 12:22:54;;;;;;;85.40;40.22;;;;;;;;;;5062296;28;20119;-33
2022/11/16 12:25:19;;;;;;;87.80;41.63;;;;;;;;;;5054761;28;20041;-33
2022/11/16 12:27:55;;;;;;;86.93;40.78;;;;;;;;;;5057006;28;20052;-33
2022/11/16 12:30:22;;;;;;;98.22;43.47;;;;;;;;;;5054468;28;20028;-33
2022/11/16 12:32:58;;;;;;;93.28;42.58;;;;;;;;;;5050765;28;20029;-34
2022/11/16 12:35:36;;;;;;;99.40;44.78;;;;;;;;;;5054567;28;21671;-32
2022/11/16 12:38:08;;;;;;;199.38;59.78;;;;;;;;;;5058289;28;20024;-42
2022/11/16 12:40:49;;;;;;;107.60;47.28;;;;;;;;;;5062094;28;20036;-39
2022/11/16 12:43:30;;;;;;;100.90;46.13;;;;;;;;;;5051264;28;20023;-40
2022/11/16 12:45:55;;;;;;;112.35;50.10;;;;;;;;;;5056633;28;20069;-39
2022/11/16 12:48:26;;;;;;;107.20;47.33;;;;;;;;;;5059316;28;20052;-41
2022/11/16 12:51:12;;;;;;;103.72;46.28;;;;;;;;;;5051723;28;20288;-39
2022/11/16 12:53:45;;;;;;;119.95;50.00;;;;;;;;;;5038151;28;20146;-45
2022/11/16 12:56:21;;;;;;;107.85;51.15;;;;;;;;;;5059361;28;20116;-39
2022/11/16 12:59:03;;;;;;;106.38;47.58;;;;;;;;;;5061174;28;20040;-44
2022/11/16 13:01:34;;;;;;;112.88;47.50;;;;;;;;;;5061736;28;20020;-42
2022/11/16 13:04:03;;;;;;;84.28;39.33;;;;;;;;;;5060207;28;20017;-44
2022/11/16 13:06:31;;;;;;;91.88;40.67;;;;;;;;;;5054304;28;20613;-40
2022/11/16 13:09:07;;;;;;;91.68;39.65;;;;;;;;;;5065372;28;20036;-41
2022/11/16 13:11:44;;;;;;;94.32;42.15;;;;;;;;;;5053767;28;20089;-38
2022/11/16 13:14:11;;;;;;;98.82;40.47;;;;;;;;;;5062878;28;20029;-38
2022/11/16 13:16:37;;;;;;;85.50;37.88;;;;;;;;;;5074172;28;20024;-38
2022/11/16 13:19:04;;;;;;;88.47;37.67;;;;;;;;;;5069519;28;20063;-41
2022/11/16 13:21:32;;;;;;;85.85;36.88;;;;;;;;;;5069253;28;20357;-38
2022/11/16 13:24:13;;;;;;;96.00;39.77;;;;;;;;;;5058164;28;20025;-42
2022/11/16 13:26:57;;;;;;;85.15;37.05;;;;;;;;;;5056531;28;20028;-39
2022/11/16 13:29:29;;;;;;;89.85;38.30;;;;;;;;;;5063568;28;20032;-35
2022/11/16 13:31:57;;;;;;;97.60;38.65;;;;;;;;;;5061061;28;20612;-38
2022/11/16 13:34:29;;;;;;;87.13;36.95;;;;;;;;;;5061679;28;20463;-40
2022/11/16 13:36:54;;;;;;;86.35;36.60;;;;;;;;;;5056267;28;20017;-37
2022/11/16 13:39:39;;;;;;;89.78;38.40;;;;;;;;;;5054708;28;20491;-39
2022/11/16 13:42:10;;;;;;;87.30;38.10;;;;;;;;;;5061959;28;20035;-41
2022/11/16 13:44:35;;;;;;;87.25;38.90;;;;;;;;;;5075146;28;20106;-41
2022/11/16 13:47:21;;;;;;;85.97;36.17;;;;;;;;;;5065247;28;20045;-39
2022/11/16 13:49:51;;;;;;;88.68;39.42;;;;;;;;;;5055568;28;20472;-39
2022/11/16 13:52:16;;;;;;;95.40;41.60;;;;;;;;;;5056853;28;20036;-38
2022/11/16 13:54:43;;;;;;;104.45;47.63;;;;;;;;;;5064722;28;20028;-43
2022/11/16 13:57:17;;;;;;;108.68;51.90;;;;;;;;;;5059686;28;20025;-42
2022/11/16 13:59:43;;;;;;;119.45;51.78;;;;;;;;;;5058464;28;20028;-39
2022/11/16 14:02:27;;;;;;;115.95;54.90;;;;;;;;;;5053793;28;20025;-35
2022/11/16 14:04:57;;;;;;;104.53;49.28;;;;;;;;;;5050608;28;20048;-41
2022/11/16 14:07:43;;;;;;;110.40;51.72;;;;;;;;;;5058543;28;20484;-42
2022/11/16 14:10:10;;;;;;;107.90;51.90;;;;;;;;;;5059194;28;20396;-43
2022/11/16 14:12:51;;;;;;;113.10;51.10;;;;;;;;;;5056322;28;20024;-43
2022/11/16 14:15:17;;;;;;;116.93;54.78;;;;;;;;;;5056555;28;20119;-44
2022/11/16 14:17:57;;;;;;;113.43;54.33;;;;;;;;;;5060743;28;20100;-38
2022/11/16 14:20:28;;;;;;;107.20;51.05;;;;;;;;;;5064326;28;20024;-39
2022/11/16 14:22:53;;;;;;;107.60;51.58;;;;;;;;;;5075076;28;20024;-40
2022/11/16 14:25:37;;;;;;;107.15;49.47;;;;;;;;;;5052738;28;20033;-43
2022/11/16 14:28:05;;;;;;;98.00;47.85;;;;;;;;;;5058842;28;20037;-36
2022/11/16 14:30:49;;;;;;;102.05;48.22;;;;;;;;;;5055745;28;20029;-38
2022/11/16 14:33:24;;;;;;;93.20;43.30;;;;;;;;;;5053621;28;20020;-44
2022/11/16 14:35:51;;;;;;;107.30;49.75;;;;;;;;;;5064154;28;20024;-37
2022/11/16 14:38:29;;;;;;;99.00;49.85;;;;;;;;;;5057929;28;20082;-37
2022/11/16 14:40:56;;;;;;;121.30;53.17;;;;;;;;;;5057751;28;20021;-40
2022/11/16 14:43:37;;;;;;;103.38;50.45;;;;;;;;;;5069784;28;20070;-40
2022/11/16 14:46:24;;;;;;;106.85;53.30;;;;;;;;;;5069700;28;20052;-40
2022/11/16 14:48:50;;;;;;;106.22;50.70;;;;;;;;;;5059516;28;20017;-37
2022/11/16 14:51:20;;;;;;;102.65;53.38;;;;;;;;;;5062856;28;20024;-41
2022/11/16 14:53:50;;;;;;;116.18;55.40;;;;;;;;;;5055351;28;20547;-43
2022/11/16 14:56:17;;;;;;;107.93;51.67;;;;;;;;;;5055010;28;20017;-38
2022/11/16 14:59:01;;;;;;;96.95;47.33;;;;;;;;;;5059493;28;20371;-37
2022/11/16 15:01:27;;;;;;;107.03;52.28;;;;;;;;;;5061220;28;20021;-42